This is the latest recevied weather packets stored in our database for station/object AG1T-20. If no packets are shown the sender has not sent any weather packets the latest 10 day(s).
| Time | Temp. | Humidity | Pressure | Rain* | Wind** | Luminosity | Snow |
|---|---|---|---|---|---|---|---|
| 1777701005 | 6.67° C | 60% | 1021.8 hPa | 0 mm | - | 0 W/m² | - |
| 1777700405 | 6.67° C | 64% | 1021.8 hPa | 0 mm | - | 0 W/m² | - |
| 1777699805 | 7.22° C | 59% | 1021.8 hPa | 0 mm | - | 0 W/m² | - |
| 1777699205 | 8.33° C | 55% | 1021.8 hPa | 0 mm | - | 0 W/m² | - |
| 1777698605 | 8.33° C | 55% | 1021.8 hPa | 0 mm | - | 0 W/m² | - |
| 1777698005 | 8.33° C | 55% | 1021.8 hPa | 0 mm | - | 0 W/m² | - |
| 1777697405 | 8.33° C | 57% | 1021.6 hPa | 0 mm | - | 0 W/m² | - |
| 1777696805 | 8.33° C | 61% | 1021.6 hPa | 0 mm | - | 0 W/m² | - |
| 1777696205 | 8.33° C | 58% | 1021.6 hPa | 0 mm | - | 0 W/m² | - |
| 1777695605 | 8.89° C | 56% | 1021.6 hPa | 0 mm | - | 0 W/m² | - |
| 1777695005 | 10° C | 51% | 1021.6 hPa | 0 mm | - | 0 W/m² | - |
| 1777694405 | 10° C | 52% | 1021.6 hPa | 0 mm | - | 0 W/m² | - |
| 1777693805 | 10.56° C | 50% | 1020.8 hPa | 0 mm | - | 0 W/m² | - |
| 1777693205 | 10.56° C | 49% | 1020.8 hPa | 0 mm | - | 0 W/m² | - |
| 1777692605 | 10.56° C | 53% | 1020.8 hPa | 0 mm | - | 0 W/m² | - |
| 1777692005 | 11.11° C | 47% | 1020.8 hPa | 0 mm | - | 0 W/m² | - |
| 1777691405 | 11.11° C | 47% | 1020.8 hPa | 0 mm | - | 0 W/m² | - |
| 1777690805 | 11.67° C | 44% | 1020.8 hPa | 0 mm | - | 0 W/m² | - |
| 1777690205 | 12.78° C | 41% | 1020.6 hPa | 0 mm | - | 0 W/m² | - |
| 1777689605 | 12.78° C | 41% | 1020.6 hPa | 0 mm | - | 0 W/m² | - |
| 1777689005 | 13.33° C | 41% | 1020.6 hPa | 0 mm | - | 1 W/m² | - |
| 1777688405 | 15° C | 32% | 1020.6 hPa | 0 mm | - | 5 W/m² | - |
| 1777687805 | 16.67° C | 28% | 1020.6 hPa | 0 mm | - | 11 W/m² | - |
| 1777687205 | 17.78° C | 27% | 1020.6 hPa | 0 mm | - | 17 W/m² | - |
| 1777686605 | 18.33° C | 26% | 1020.5 hPa | 0 mm | - | 22 W/m² | - |
* Rain latest hour (hover to see other rain measurements)
** Current wind speed in m/s (hover to see current wind gust speed)